Beulah, Oregon
Current Conditions -  °F | °C
As of 5:26 AM on Thursday 29 Jan 2015 (Local Time) from KONO Reporting Station
Haze Haze  
Wind Chill: 27°   Ceiling: 3000
Heat Index: 32°   Visibility: 5mi
Dew Point: 31°   Wind: 5mph
Humidity: 96%   Direction: 20°NNE
Pressure: 30.47"   Gusts: NA
Location:  43.79°N, 117.941°W
Report Text: KONO 291226Z AUTO 02004KT 5SM BR OVC030 00/M01 A3047 RMK AO2 T00001006
Loading
Personal Weather Stations






























Interactive Weather Map New forecast layout! Learn more

10-Day Weather Forecast

Advertisements
Track Severe Weather on mobile